sensor_id;sensor_type;location;lat;lon;timestamp;temperature;humidity
65188;SHT30;51775;51.148;6.950;2023-05-29T00:01:58;18.77;49.67
65188;SHT30;51775;51.148;6.950;2023-05-29T00:04:24;18.74;49.57
65188;SHT30;51775;51.148;6.950;2023-05-29T00:06:49;18.71;49.54
65188;SHT30;51775;51.148;6.950;2023-05-29T00:09:14;18.65;49.43
65188;SHT30;51775;51.148;6.950;2023-05-29T00:11:40;18.64;49.29
65188;SHT30;51775;51.148;6.950;2023-05-29T00:14:05;18.56;49.40
65188;SHT30;51775;51.148;6.950;2023-05-29T00:16:30;18.49;49.53
65188;SHT30;51775;51.148;6.950;2023-05-29T00:18:55;18.40;49.44
65188;SHT30;51775;51.148;6.950;2023-05-29T00:21:21;18.39;49.45
65188;SHT30;51775;51.148;6.950;2023-05-29T00:23:47;18.34;49.58
65188;SHT30;51775;51.148;6.950;2023-05-29T00:26:12;18.29;49.54
65188;SHT30;51775;51.148;6.950;2023-05-29T00:28:38;18.30;49.55
65188;SHT30;51775;51.148;6.950;2023-05-29T00:31:03;18.29;49.46
65188;SHT30;51775;51.148;6.950;2023-05-29T00:33:28;18.30;49.40
65188;SHT30;51775;51.148;6.950;2023-05-29T00:35:54;18.29;49.18
65188;SHT30;51775;51.148;6.950;2023-05-29T00:38:19;18.28;49.36
65188;SHT30;51775;51.148;6.950;2023-05-29T00:40:44;18.26;49.24
65188;SHT30;51775;51.148;6.950;2023-05-29T00:43:09;18.26;49.11
65188;SHT30;51775;51.148;6.950;2023-05-29T00:45:35;18.22;49.33
65188;SHT30;51775;51.148;6.950;2023-05-29T00:48:00;18.25;49.36
65188;SHT30;51775;51.148;6.950;2023-05-29T00:50:26;18.20;49.39
65188;SHT30;51775;51.148;6.950;2023-05-29T00:52:51;18.20;49.40
65188;SHT30;51775;51.148;6.950;2023-05-29T00:55:16;18.19;49.40
65188;SHT30;51775;51.148;6.950;2023-05-29T00:57:42;18.17;49.55
65188;SHT30;51775;51.148;6.950;2023-05-29T01:00:08;18.16;49.50
65188;SHT30;51775;51.148;6.950;2023-05-29T01:02:35;18.13;49.59
65188;SHT30;51775;51.148;6.950;2023-05-29T01:05:01;18.12;49.68
65188;SHT30;51775;51.148;6.950;2023-05-29T01:07:26;18.09;49.79
65188;SHT30;51775;51.148;6.950;2023-05-29T01:09:51;18.08;49.86
65188;SHT30;51775;51.148;6.950;2023-05-29T01:15:44;18.02;50.18
65188;SHT30;51775;51.148;6.950;2023-05-29T01:18:31;17.99;50.27
65188;SHT30;51775;51.148;6.950;2023-05-29T01:26:46;17.95;50.42
65188;SHT30;51775;51.148;6.950;2023-05-29T01:29:15;17.95;50.56
65188;SHT30;51775;51.148;6.950;2023-05-29T01:31:43;17.88;50.56
65188;SHT30;51775;51.148;6.950;2023-05-29T01:34:09;17.92;50.71
65188;SHT30;51775;51.148;6.950;2023-05-29T01:36:34;17.88;50.74
65188;SHT30;51775;51.148;6.950;2023-05-29T01:39:00;17.82;50.86
65188;SHT30;51775;51.148;6.950;2023-05-29T01:41:26;17.81;50.85
65188;SHT30;51775;51.148;6.950;2023-05-29T01:43:52;17.75;51.06
65188;SHT30;51775;51.148;6.950;2023-05-29T01:46:18;17.78;51.08
65188;SHT30;51775;51.148;6.950;2023-05-29T01:48:45;17.78;51.15
65188;SHT30;51775;51.148;6.950;2023-05-29T01:51:11;17.74;51.30
65188;SHT30;51775;51.148;6.950;2023-05-29T01:53:40;17.71;51.38
65188;SHT30;51775;51.148;6.950;2023-05-29T01:56:06;17.70;51.51
65188;SHT30;51775;51.148;6.950;2023-05-29T01:58:33;17.68;51.65
65188;SHT30;51775;51.148;6.950;2023-05-29T02:00:59;17.64;51.81
65188;SHT30;51775;51.148;6.950;2023-05-29T02:03:25;17.61;52.08
65188;SHT30;51775;51.148;6.950;2023-05-29T02:05:50;17.61;52.09
65188;SHT30;51775;51.148;6.950;2023-05-29T02:08:15;17.57;52.18
65188;SHT30;51775;51.148;6.950;2023-05-29T02:10:41;17.53;52.33
65188;SHT30;51775;51.148;6.950;2023-05-29T02:13:06;17.53;52.53
65188;SHT30;51775;51.148;6.950;2023-05-29T02:15:31;17.50;52.68
65188;SHT30;51775;51.148;6.950;2023-05-29T02:17:57;17.47;52.79
65188;SHT30;51775;51.148;6.950;2023-05-29T02:20:23;17.44;52.81
65188;SHT30;51775;51.148;6.950;2023-05-29T02:22:48;17.41;52.96
65188;SHT30;51775;51.148;6.950;2023-05-29T02:25:13;17.37;53.03
65188;SHT30;51775;51.148;6.950;2023-05-29T02:27:39;17.33;53.11
65188;SHT30;51775;51.148;6.950;2023-05-29T02:30:04;17.33;53.21
65188;SHT30;51775;51.148;6.950;2023-05-29T02:32:30;17.28;53.27
65188;SHT30;51775;51.148;6.950;2023-05-29T02:34:55;17.20;53.21
65188;SHT30;51775;51.148;6.950;2023-05-29T02:37:20;17.24;53.21
65188;SHT30;51775;51.148;6.950;2023-05-29T02:39:46;17.22;53.08
65188;SHT30;51775;51.148;6.950;2023-05-29T02:42:11;17.16;53.00
65188;SHT30;51775;51.148;6.950;2023-05-29T02:44:36;17.10;53.11
65188;SHT30;51775;51.148;6.950;2023-05-29T02:47:02;17.05;53.27
65188;SHT30;51775;51.148;6.950;2023-05-29T02:49:27;17.02;53.22
65188;SHT30;51775;51.148;6.950;2023-05-29T02:51:52;16.95;53.19
65188;SHT30;51775;51.148;6.950;2023-05-29T02:54:18;16.95;53.20
65188;SHT30;51775;51.148;6.950;2023-05-29T02:56:43;16.92;53.16
65188;SHT30;51775;51.148;6.950;2023-05-29T02:59:08;16.83;53.27
65188;SHT30;51775;51.148;6.950;2023-05-29T03:01:33;16.81;53.16
65188;SHT30;51775;51.148;6.950;2023-05-29T03:03:59;16.78;53.24
65188;SHT30;51775;51.148;6.950;2023-05-29T03:06:24;16.79;53.30
65188;SHT30;51775;51.148;6.950;2023-05-29T03:08:49;16.73;53.30
65188;SHT30;51775;51.148;6.950;2023-05-29T03:11:15;16.68;53.34
65188;SHT30;51775;51.148;6.950;2023-05-29T03:13:40;16.62;53.52
65188;SHT30;51775;51.148;6.950;2023-05-29T03:16:05;16.60;53.58
65188;SHT30;51775;51.148;6.950;2023-05-29T03:18:31;16.57;53.64
65188;SHT30;51775;51.148;6.950;2023-05-29T03:20:56;16.52;53.76
65188;SHT30;51775;51.148;6.950;2023-05-29T03:23:22;16.48;53.88
65188;SHT30;51775;51.148;6.950;2023-05-29T03:25:47;16.43;54.00
65188;SHT30;51775;51.148;6.950;2023-05-29T03:28:13;16.40;54.17
65188;SHT30;51775;51.148;6.950;2023-05-29T03:30:38;16.40;54.31
65188;SHT30;51775;51.148;6.950;2023-05-29T03:33:03;16.34;54.35
65188;SHT30;51775;51.148;6.950;2023-05-29T03:35:29;16.30;54.52
65188;SHT30;51775;51.148;6.950;2023-05-29T03:37:55;16.33;54.56
65188;SHT30;51775;51.148;6.950;2023-05-29T03:40:20;16.24;54.55
65188;SHT30;51775;51.148;6.950;2023-05-29T03:42:45;16.30;54.59
65188;SHT30;51775;51.148;6.950;2023-05-29T03:45:11;16.23;54.72
65188;SHT30;51775;51.148;6.950;2023-05-29T03:47:36;16.30;54.69
65188;SHT30;51775;51.148;6.950;2023-05-29T03:50:01;16.21;54.92
65188;SHT30;51775;51.148;6.950;2023-05-29T03:52:27;16.23;54.77
65188;SHT30;51775;51.148;6.950;2023-05-29T03:54:52;16.21;54.80
65188;SHT30;51775;51.148;6.950;2023-05-29T03:57:17;16.18;54.93
65188;SHT30;51775;51.148;6.950;2023-05-29T03:59:43;16.17;54.91
65188;SHT30;51775;51.148;6.950;2023-05-29T04:02:08;16.20;54.92
65188;SHT30;51775;51.148;6.950;2023-05-29T04:04:33;16.14;55.00
65188;SHT30;51775;51.148;6.950;2023-05-29T04:06:59;16.16;55.04
65188;SHT30;51775;51.148;6.950;2023-05-29T04:09:24;16.18;55.02
65188;SHT30;51775;51.148;6.950;2023-05-29T04:11:49;16.14;55.03
65188;SHT30;51775;51.148;6.950;2023-05-29T04:14:14;16.17;55.05
65188;SHT30;51775;51.148;6.950;2023-05-29T04:16:40;16.18;55.03
65188;SHT30;51775;51.148;6.950;2023-05-29T04:19:05;16.23;54.90
65188;SHT30;51775;51.148;6.950;2023-05-29T04:21:31;16.21;54.84
65188;SHT30;51775;51.148;6.950;2023-05-29T04:23:56;16.25;54.65
65188;SHT30;51775;51.148;6.950;2023-05-29T04:26:22;16.21;54.71
65188;SHT30;51775;51.148;6.950;2023-05-29T04:28:47;16.20;54.67
65188;SHT30;51775;51.148;6.950;2023-05-29T04:31:12;16.27;54.49
65188;SHT30;51775;51.148;6.950;2023-05-29T04:33:38;16.31;54.27
65188;SHT30;51775;51.148;6.950;2023-05-29T04:36:03;16.34;53.99
65188;SHT30;51775;51.148;6.950;2023-05-29T04:38:29;16.37;53.88
65188;SHT30;51775;51.148;6.950;2023-05-29T04:40:55;16.41;53.48
65188;SHT30;51775;51.148;6.950;2023-05-29T04:43:21;16.45;53.42
65188;SHT30;51775;51.148;6.950;2023-05-29T04:45:46;16.45;53.24
65188;SHT30;51775;51.148;6.950;2023-05-29T04:48:12;16.52;53.01
65188;SHT30;51775;51.148;6.950;2023-05-29T04:50:37;16.52;52.97
65188;SHT30;51775;51.148;6.950;2023-05-29T04:53:02;16.60;52.74
65188;SHT30;51775;51.148;6.950;2023-05-29T04:55:27;16.57;52.79
65188;SHT30;51775;51.148;6.950;2023-05-29T04:57:53;16.61;52.79
65188;SHT30;51775;51.148;6.950;2023-05-29T05:00:19;16.64;52.87
65188;SHT30;51775;51.148;6.950;2023-05-29T05:02:44;16.67;52.42
65188;SHT30;51775;51.148;6.950;2023-05-29T05:05:11;16.69;52.54
65188;SHT30;51775;51.148;6.950;2023-05-29T05:07:36;16.71;52.34
65188;SHT30;51775;51.148;6.950;2023-05-29T05:10:05;16.73;52.43
65188;SHT30;51775;51.148;6.950;2023-05-29T05:12:30;16.76;52.60
65188;SHT30;51775;51.148;6.950;2023-05-29T05:14:56;16.81;52.25
65188;SHT30;51775;51.148;6.950;2023-05-29T05:17:21;16.85;52.17
65188;SHT30;51775;51.148;6.950;2023-05-29T05:19:46;16.88;52.37
65188;SHT30;51775;51.148;6.950;2023-05-29T05:22:11;16.93;52.25
65188;SHT30;51775;51.148;6.950;2023-05-29T05:24:37;16.93;52.02
65188;SHT30;51775;51.148;6.950;2023-05-29T05:27:03;16.96;52.10
65188;SHT30;51775;51.148;6.950;2023-05-29T05:29:29;17.03;51.87
65188;SHT30;51775;51.148;6.950;2023-05-29T05:31:54;17.05;51.86
65188;SHT30;51775;51.148;6.950;2023-05-29T05:34:20;17.08;51.86
65188;SHT30;51775;51.148;6.950;2023-05-29T05:36:45;17.10;52.04
65188;SHT30;51775;51.148;6.950;2023-05-29T05:39:10;17.12;51.70
65188;SHT30;51775;51.148;6.950;2023-05-29T05:41:36;17.17;51.77
65188;SHT30;51775;51.148;6.950;2023-05-29T05:44:01;17.23;51.49
65188;SHT30;51775;51.148;6.950;2023-05-29T05:46:27;17.26;51.18
65188;SHT30;51775;51.148;6.950;2023-05-29T05:48:53;17.28;51.09
65188;SHT30;51775;51.148;6.950;2023-05-29T05:51:19;17.30;50.65
65188;SHT30;51775;51.148;6.950;2023-05-29T05:53:44;17.33;50.80
65188;SHT30;51775;51.148;6.950;2023-05-29T05:56:09;17.33;50.83
65188;SHT30;51775;51.148;6.950;2023-05-29T05:58:34;17.34;51.17
65188;SHT30;51775;51.148;6.950;2023-05-29T06:01:00;17.40;50.69
65188;SHT30;51775;51.148;6.950;2023-05-29T06:03:25;17.41;51.08
65188;SHT30;51775;51.148;6.950;2023-05-29T06:05:50;17.47;51.11
65188;SHT30;51775;51.148;6.950;2023-05-29T06:08:16;17.50;50.94
65188;SHT30;51775;51.148;6.950;2023-05-29T06:10:41;17.54;51.01
65188;SHT30;51775;51.148;6.950;2023-05-29T06:13:06;17.60;51.03
65188;SHT30;51775;51.148;6.950;2023-05-29T06:15:31;17.64;50.57
65188;SHT30;51775;51.148;6.950;2023-05-29T06:17:57;17.67;50.23
65188;SHT30;51775;51.148;6.950;2023-05-29T06:20:22;17.71;50.34
65188;SHT30;51775;51.148;6.950;2023-05-29T06:22:47;17.71;50.44
65188;SHT30;51775;51.148;6.950;2023-05-29T06:25:12;17.75;50.40
65188;SHT30;51775;51.148;6.950;2023-05-29T06:27:38;17.75;50.59
65188;SHT30;51775;51.148;6.950;2023-05-29T06:30:03;17.81;50.71
65188;SHT30;51775;51.148;6.950;2023-05-29T06:32:29;17.84;50.23
65188;SHT30;51775;51.148;6.950;2023-05-29T06:34:54;17.88;50.41
65188;SHT30;51775;51.148;6.950;2023-05-29T06:37:19;17.95;50.50
65188;SHT30;51775;51.148;6.950;2023-05-29T06:39:45;17.99;50.56
65188;SHT30;51775;51.148;6.950;2023-05-29T06:42:10;18.05;50.30
65188;SHT30;51775;51.148;6.950;2023-05-29T06:44:36;18.08;50.01
65188;SHT30;51775;51.148;6.950;2023-05-29T06:47:01;18.10;50.38
65188;SHT30;51775;51.148;6.950;2023-05-29T06:49:26;18.14;50.16
65188;SHT30;51775;51.148;6.950;2023-05-29T06:51:52;18.17;50.27
65188;SHT30;51775;51.148;6.950;2023-05-29T06:54:17;18.23;50.22
65188;SHT30;51775;51.148;6.950;2023-05-29T06:56:42;18.28;49.82
65188;SHT30;51775;51.148;6.950;2023-05-29T06:59:08;18.34;49.82
65188;SHT30;51775;51.148;6.950;2023-05-29T07:01:33;18.37;50.01
65188;SHT30;51775;51.148;6.950;2023-05-29T07:03:58;18.41;49.74
65188;SHT30;51775;51.148;6.950;2023-05-29T07:06:23;18.47;49.44
65188;SHT30;51775;51.148;6.950;2023-05-29T07:08:49;18.49;50.05
65188;SHT30;51775;51.148;6.950;2023-05-29T07:11:14;18.56;49.91
65188;SHT30;51775;51.148;6.950;2023-05-29T07:13:39;18.63;49.53
65188;SHT30;51775;51.148;6.950;2023-05-29T07:16:05;18.71;49.43
65188;SHT30;51775;51.148;6.950;2023-05-29T07:18:30;18.72;48.67
65188;SHT30;51775;51.148;6.950;2023-05-29T07:20:56;18.78;48.87
65188;SHT30;51775;51.148;6.950;2023-05-29T07:23:21;18.81;48.95
65188;SHT30;51775;51.148;6.950;2023-05-29T07:25:47;18.83;49.12
65188;SHT30;51775;51.148;6.950;2023-05-29T07:28:12;18.85;49.03
65188;SHT30;51775;51.148;6.950;2023-05-29T07:30:37;18.95;49.26
65188;SHT30;51775;51.148;6.950;2023-05-29T07:33:03;18.99;48.99
65188;SHT30;51775;51.148;6.950;2023-05-29T07:35:28;19.01;48.86
65188;SHT30;51775;51.148;6.950;2023-05-29T07:37:53;19.05;49.12
65188;SHT30;51775;51.148;6.950;2023-05-29T07:40:19;19.06;48.91
65188;SHT30;51775;51.148;6.950;2023-05-29T07:42:44;19.12;48.80
65188;SHT30;51775;51.148;6.950;2023-05-29T07:45:09;19.14;48.69
65188;SHT30;51775;51.148;6.950;2023-05-29T07:47:34;19.16;48.76
65188;SHT30;51775;51.148;6.950;2023-05-29T07:50:00;19.19;49.21
65188;SHT30;51775;51.148;6.950;2023-05-29T07:52:25;19.23;48.31
65188;SHT30;51775;51.148;6.950;2023-05-29T07:54:50;19.25;48.62
65188;SHT30;51775;51.148;6.950;2023-05-29T07:57:16;19.27;49.14
65188;SHT30;51775;51.148;6.950;2023-05-29T07:59:41;19.30;48.86
65188;SHT30;51775;51.148;6.950;2023-05-29T08:02:07;19.35;48.65
65188;SHT30;51775;51.148;6.950;2023-05-29T08:04:32;19.37;49.16
65188;SHT30;51775;51.148;6.950;2023-05-29T08:07:02;19.42;48.72
65188;SHT30;51775;51.148;6.950;2023-05-29T08:09:28;19.45;48.66
65188;SHT30;51775;51.148;6.950;2023-05-29T08:11:53;19.47;48.62
65188;SHT30;51775;51.148;6.950;2023-05-29T08:14:18;19.50;48.16
65188;SHT30;51775;51.148;6.950;2023-05-29T08:16:43;19.53;48.32
65188;SHT30;51775;51.148;6.950;2023-05-29T08:19:09;19.56;47.91
65188;SHT30;51775;51.148;6.950;2023-05-29T08:21:34;19.60;47.99
65188;SHT30;51775;51.148;6.950;2023-05-29T08:24:01;19.64;48.03
65188;SHT30;51775;51.148;6.950;2023-05-29T08:26:27;19.62;48.02
65188;SHT30;51775;51.148;6.950;2023-05-29T08:28:52;19.60;48.41
65188;SHT30;51775;51.148;6.950;2023-05-29T08:31:17;19.60;48.53
65188;SHT30;51775;51.148;6.950;2023-05-29T08:33:43;19.57;48.24
65188;SHT30;51775;51.148;6.950;2023-05-29T08:36:08;19.60;48.47
65188;SHT30;51775;51.148;6.950;2023-05-29T08:38:34;19.60;48.09
65188;SHT30;51775;51.148;6.950;2023-05-29T08:41:00;19.63;48.04
65188;SHT30;51775;51.148;6.950;2023-05-29T08:43:31;19.64;47.79
65188;SHT30;51775;51.148;6.950;2023-05-29T08:46:01;19.70;48.18
65188;SHT30;51775;51.148;6.950;2023-05-29T08:48:28;19.71;48.22
65188;SHT30;51775;51.148;6.950;2023-05-29T08:50:55;19.77;48.26
65188;SHT30;51775;51.148;6.950;2023-05-29T08:53:25;19.81;48.58
65188;SHT30;51775;51.148;6.950;2023-05-29T08:55:51;19.81;47.87
65188;SHT30;51775;51.148;6.950;2023-05-29T08:58:17;19.85;47.85
65188;SHT30;51775;51.148;6.950;2023-05-29T09:00:47;19.87;47.98
65188;SHT30;51775;51.148;6.950;2023-05-29T09:03:12;19.88;47.76
65188;SHT30;51775;51.148;6.950;2023-05-29T09:05:39;19.90;47.80
65188;SHT30;51775;51.148;6.950;2023-05-29T09:08:04;19.91;47.86
65188;SHT30;51775;51.148;6.950;2023-05-29T09:10:30;19.95;48.28
65188;SHT30;51775;51.148;6.950;2023-05-29T09:12:55;19.97;47.94
65188;SHT30;51775;51.148;6.950;2023-05-29T09:15:22;20.04;47.16
65188;SHT30;51775;51.148;6.950;2023-05-29T09:17:52;20.09;48.21
65188;SHT30;51775;51.148;6.950;2023-05-29T09:20:18;20.12;47.80
65188;SHT30;51775;51.148;6.950;2023-05-29T09:22:57;20.14;47.75
65188;SHT30;51775;51.148;6.950;2023-05-29T09:25:30;20.18;47.80
65188;SHT30;51775;51.148;6.950;2023-05-29T09:30:38;20.24;47.88
65188;SHT30;51775;51.148;6.950;2023-05-29T09:33:05;20.25;47.40
65188;SHT30;51775;51.148;6.950;2023-05-29T09:35:35;20.26;48.18
65188;SHT30;51775;51.148;6.950;2023-05-29T09:38:01;20.29;47.59
65188;SHT30;51775;51.148;6.950;2023-05-29T09:40:29;20.30;47.98
65188;SHT30;51775;51.148;6.950;2023-05-29T09:42:56;20.33;47.59
65188;SHT30;51775;51.148;6.950;2023-05-29T09:45:26;20.36;47.16
65188;SHT30;51775;51.148;6.950;2023-05-29T09:47:52;20.36;47.63
65188;SHT30;51775;51.148;6.950;2023-05-29T09:50:25;20.42;46.96
65188;SHT30;51775;51.148;6.950;2023-05-29T09:52:50;20.38;47.37
65188;SHT30;51775;51.148;6.950;2023-05-29T09:55:16;20.40;46.74
65188;SHT30;51775;51.148;6.950;2023-05-29T09:57:44;20.45;47.10
65188;SHT30;51775;51.148;6.950;2023-05-29T10:00:11;20.46;47.08
65188;SHT30;51775;51.148;6.950;2023-05-29T10:02:37;20.50;47.72
65188;SHT30;51775;51.148;6.950;2023-05-29T10:05:03;20.53;47.51
65188;SHT30;51775;51.148;6.950;2023-05-29T10:07:29;20.59;47.39
65188;SHT30;51775;51.148;6.950;2023-05-29T10:10:02;20.62;47.13
65188;SHT30;51775;51.148;6.950;2023-05-29T10:12:28;20.62;46.91
65188;SHT30;51775;51.148;6.950;2023-05-29T10:14:56;20.69;46.86
65188;SHT30;51775;51.148;6.950;2023-05-29T10:17:25;20.73;46.56
65188;SHT30;51775;51.148;6.950;2023-05-29T10:19:52;20.77;46.65
65188;SHT30;51775;51.148;6.950;2023-05-29T10:22:20;20.84;46.35
65188;SHT30;51775;51.148;6.950;2023-05-29T10:24:48;20.90;46.73
65188;SHT30;51775;51.148;6.950;2023-05-29T10:27:14;20.97;46.65
65188;SHT30;51775;51.148;6.950;2023-05-29T10:29:55;21.00;46.28
65188;SHT30;51775;51.148;6.950;2023-05-29T10:32:32;21.04;46.16
65188;SHT30;51775;51.148;6.950;2023-05-29T10:35:24;21.07;45.81
65188;SHT30;51775;51.148;6.950;2023-05-29T10:38:11;21.05;46.40
65188;SHT30;51775;51.148;6.950;2023-05-29T10:40:37;21.10;46.51
65188;SHT30;51775;51.148;6.950;2023-05-29T10:43:02;21.14;46.89
65188;SHT30;51775;51.148;6.950;2023-05-29T10:47:53;21.25;45.82
65188;SHT30;51775;51.148;6.950;2023-05-29T10:50:38;21.24;44.87
65188;SHT30;51775;51.148;6.950;2023-05-29T10:53:03;21.25;45.73
65188;SHT30;51775;51.148;6.950;2023-05-29T10:55:36;21.30;45.70
65188;SHT30;51775;51.148;6.950;2023-05-29T10:58:09;21.30;46.05
65188;SHT30;51775;51.148;6.950;2023-05-29T11:00:39;21.37;46.02
65188;SHT30;51775;51.148;6.950;2023-05-29T11:03:07;21.42;45.92
65188;SHT30;51775;51.148;6.950;2023-05-29T11:05:32;21.43;45.63
65188;SHT30;51775;51.148;6.950;2023-05-29T11:08:00;21.45;45.41
65188;SHT30;51775;51.148;6.950;2023-05-29T11:10:42;21.49;46.13
65188;SHT30;51775;51.148;6.950;2023-05-29T11:13:08;21.55;45.87
65188;SHT30;51775;51.148;6.950;2023-05-29T11:15:33;21.55;45.22
65188;SHT30;51775;51.148;6.950;2023-05-29T11:18:08;21.63;45.75
65188;SHT30;51775;51.148;6.950;2023-05-29T11:20:42;21.66;44.83
65188;SHT30;51775;51.148;6.950;2023-05-29T11:23:14;21.69;45.23
65188;SHT30;51775;51.148;6.950;2023-05-29T11:25:40;21.73;45.31
65188;SHT30;51775;51.148;6.950;2023-05-29T11:28:07;21.75;44.01
65188;SHT30;51775;51.148;6.950;2023-05-29T11:30:40;21.80;44.78
65188;SHT30;51775;51.148;6.950;2023-05-29T11:33:06;21.80;45.44
65188;SHT30;51775;51.148;6.950;2023-05-29T11:35:34;21.85;44.12
65188;SHT30;51775;51.148;6.950;2023-05-29T11:38:02;21.85;44.09
65188;SHT30;51775;51.148;6.950;2023-05-29T11:40:27;21.85;44.71
65188;SHT30;51775;51.148;6.950;2023-05-29T11:42:52;21.87;44.83
65188;SHT30;51775;51.148;6.950;2023-05-29T11:45:19;21.87;43.73
65188;SHT30;51775;51.148;6.950;2023-05-29T11:47:58;21.92;44.37
65188;SHT30;51775;51.148;6.950;2023-05-29T11:50:26;21.96;44.21
65188;SHT30;51775;51.148;6.950;2023-05-29T11:52:51;22.00;45.29
65188;SHT30;51775;51.148;6.950;2023-05-29T11:55:18;22.06;44.09
65188;SHT30;51775;51.148;6.950;2023-05-29T11:57:43;22.07;43.92
65188;SHT30;51775;51.148;6.950;2023-05-29T12:00:13;22.08;43.39
65188;SHT30;51775;51.148;6.950;2023-05-29T12:02:38;22.11;44.28
65188;SHT30;51775;51.148;6.950;2023-05-29T12:05:05;22.14;43.39
65188;SHT30;51775;51.148;6.950;2023-05-29T12:07:30;22.18;43.42
65188;SHT30;51775;51.148;6.950;2023-05-29T12:09:56;22.17;42.95
65188;SHT30;51775;51.148;6.950;2023-05-29T12:12:21;22.22;43.44
65188;SHT30;51775;51.148;6.950;2023-05-29T12:14:50;22.24;43.17
65188;SHT30;51775;51.148;6.950;2023-05-29T12:17:15;22.25;42.87
65188;SHT30;51775;51.148;6.950;2023-05-29T12:19:41;22.31;43.29
65188;SHT30;51775;51.148;6.950;2023-05-29T12:22:06;22.34;43.38
65188;SHT30;51775;51.148;6.950;2023-05-29T12:24:31;22.30;43.47
65188;SHT30;51775;51.148;6.950;2023-05-29T12:26:57;22.37;44.14
65188;SHT30;51775;51.148;6.950;2023-05-29T12:29:38;22.37;43.29
65188;SHT30;51775;51.148;6.950;2023-05-29T12:32:03;22.41;42.55
65188;SHT30;51775;51.148;6.950;2023-05-29T12:34:34;22.41;42.62
65188;SHT30;51775;51.148;6.950;2023-05-29T12:37:09;22.38;42.62
65188;SHT30;51775;51.148;6.950;2023-05-29T12:39:34;22.35;42.35
65188;SHT30;51775;51.148;6.950;2023-05-29T12:42:00;22.35;43.15
65188;SHT30;51775;51.148;6.950;2023-05-29T12:44:25;22.43;43.36
65188;SHT30;51775;51.148;6.950;2023-05-29T12:46:56;22.44;42.44
65188;SHT30;51775;51.148;6.950;2023-05-29T12:49:21;22.45;42.84
65188;SHT30;51775;51.148;6.950;2023-05-29T12:51:46;22.47;42.39
65188;SHT30;51775;51.148;6.950;2023-05-29T12:54:13;22.49;42.46
65188;SHT30;51775;51.148;6.950;2023-05-29T12:56:39;22.52;42.11
65188;SHT30;51775;51.148;6.950;2023-05-29T12:59:04;22.51;42.49
65188;SHT30;51775;51.148;6.950;2023-05-29T13:01:30;22.49;42.74
65188;SHT30;51775;51.148;6.950;2023-05-29T13:03:56;22.51;42.38
65188;SHT30;51775;51.148;6.950;2023-05-29T13:06:21;22.54;42.30
65188;SHT30;51775;51.148;6.950;2023-05-29T13:08:47;22.52;42.62
65188;SHT30;51775;51.148;6.950;2023-05-29T13:11:12;22.51;41.94
65188;SHT30;51775;51.148;6.950;2023-05-29T13:13:37;22.51;41.57
65188;SHT30;51775;51.148;6.950;2023-05-29T13:16:03;22.49;41.91
65188;SHT30;51775;51.148;6.950;2023-05-29T13:18:28;22.52;41.71
65188;SHT30;51775;51.148;6.950;2023-05-29T13:20:53;22.49;41.42
65188;SHT30;51775;51.148;6.950;2023-05-29T13:23:20;22.52;42.12
65188;SHT30;51775;51.148;6.950;2023-05-29T13:25:45;22.54;41.96
65188;SHT30;51775;51.148;6.950;2023-05-29T13:28:10;22.55;42.37
65188;SHT30;51775;51.148;6.950;2023-05-29T13:30:35;22.58;43.42
65188;SHT30;51775;51.148;6.950;2023-05-29T13:33:01;22.65;42.18
65188;SHT30;51775;51.148;6.950;2023-05-29T13:35:26;22.65;42.41
65188;SHT30;51775;51.148;6.950;2023-05-29T13:37:51;22.68;41.37
65188;SHT30;51775;51.148;6.950;2023-05-29T13:40:17;22.72;41.70
65188;SHT30;51775;51.148;6.950;2023-05-29T13:42:42;22.71;41.99
65188;SHT30;51775;51.148;6.950;2023-05-29T13:45:08;22.69;41.66
65188;SHT30;51775;51.148;6.950;2023-05-29T13:47:34;22.66;42.33
65188;SHT30;51775;51.148;6.950;2023-05-29T13:49:59;22.69;42.42
65188;SHT30;51775;51.148;6.950;2023-05-29T13:52:26;22.66;41.58
65188;SHT30;51775;51.148;6.950;2023-05-29T13:54:51;22.68;42.07
65188;SHT30;51775;51.148;6.950;2023-05-29T13:57:16;22.66;41.66
65188;SHT30;51775;51.148;6.950;2023-05-29T13:59:41;22.65;42.35
65188;SHT30;51775;51.148;6.950;2023-05-29T14:02:07;22.62;42.22
65188;SHT30;51775;51.148;6.950;2023-05-29T14:04:32;22.61;41.70
65188;SHT30;51775;51.148;6.950;2023-05-29T14:06:57;22.62;42.27
65188;SHT30;51775;51.148;6.950;2023-05-29T14:09:23;22.64;41.89
65188;SHT30;51775;51.148;6.950;2023-05-29T14:11:48;22.61;41.43
65188;SHT30;51775;51.148;6.950;2023-05-29T14:14:13;22.62;41.50
65188;SHT30;51775;51.148;6.950;2023-05-29T14:16:39;22.64;41.39
65188;SHT30;51775;51.148;6.950;2023-05-29T14:19:04;22.64;41.74
65188;SHT30;51775;51.148;6.950;2023-05-29T14:21:29;22.64;41.38
65188;SHT30;51775;51.148;6.950;2023-05-29T14:23:54;22.59;41.81
65188;SHT30;51775;51.148;6.950;2023-05-29T14:26:20;22.61;42.38
65188;SHT30;51775;51.148;6.950;2023-05-29T14:28:45;22.61;41.53
65188;SHT30;51775;51.148;6.950;2023-05-29T14:31:10;22.61;41.64
65188;SHT30;51775;51.148;6.950;2023-05-29T14:33:36;22.61;41.43
65188;SHT30;51775;51.148;6.950;2023-05-29T14:36:01;22.61;40.73
65188;SHT30;51775;51.148;6.950;2023-05-29T14:38:26;22.58;40.99
65188;SHT30;51775;51.148;6.950;2023-05-29T14:40:51;22.55;41.18
65188;SHT30;51775;51.148;6.950;2023-05-29T14:43:17;22.51;42.06
65188;SHT30;51775;51.148;6.950;2023-05-29T14:45:43;22.51;41.85
65188;SHT30;51775;51.148;6.950;2023-05-29T14:48:08;22.48;41.23
65188;SHT30;51775;51.148;6.950;2023-05-29T14:50:33;22.47;41.41
65188;SHT30;51775;51.148;6.950;2023-05-29T14:52:58;22.45;41.90
65188;SHT30;51775;51.148;6.950;2023-05-29T14:55:24;22.43;42.17
65188;SHT30;51775;51.148;6.950;2023-05-29T14:57:49;22.47;42.16
65188;SHT30;51775;51.148;6.950;2023-05-29T15:00:15;22.47;42.43
65188;SHT30;51775;51.148;6.950;2023-05-29T15:02:40;22.47;41.34
65188;SHT30;51775;51.148;6.950;2023-05-29T15:05:06;22.47;40.92
65188;SHT30;51775;51.148;6.950;2023-05-29T15:07:32;22.43;40.81
65188;SHT30;51775;51.148;6.950;2023-05-29T15:09:58;22.41;41.22
65188;SHT30;51775;51.148;6.950;2023-05-29T15:12:23;22.40;41.11
65188;SHT30;51775;51.148;6.950;2023-05-29T15:14:48;22.37;40.59
65188;SHT30;51775;51.148;6.950;2023-05-29T15:17:14;22.34;41.06
65188;SHT30;51775;51.148;6.950;2023-05-29T15:19:39;22.33;41.61
65188;SHT30;51775;51.148;6.950;2023-05-29T15:22:04;22.28;41.94
65188;SHT30;51775;51.148;6.950;2023-05-29T15:24:30;22.27;41.76
65188;SHT30;51775;51.148;6.950;2023-05-29T15:26:55;22.24;41.40
65188;SHT30;51775;51.148;6.950;2023-05-29T15:29:20;22.21;41.64
65188;SHT30;51775;51.148;6.950;2023-05-29T15:31:46;22.17;42.06
65188;SHT30;51775;51.148;6.950;2023-05-29T15:34:11;22.17;41.35
65188;SHT30;51775;51.148;6.950;2023-05-29T15:36:36;22.14;41.80
65188;SHT30;51775;51.148;6.950;2023-05-29T15:39:02;22.16;41.81